Time;durP1;ratioP1;P1;durP2;ratioP2;P2;SDS_P1;SDS_P2;PMS_P1;PMS_P2;Temp;Humidity;BMP_temperature;BMP_pressure;BME280_temperature;BME280_humidity;BME280_pressure;Samples;Min_cycle;Max_cycle;Signal;HPM_P1;HPM_P2
2022/01/21 00:01:06;;;;;;;6.32;1.65;;;;;;;2.53;100.00;101343.69;4916482;29;20076;-85
2022/01/21 00:03:32;;;;;;;6.43;1.98;;;;;;;2.45;100.00;101336.34;4917852;29;20089;-84
2022/01/21 00:05:58;;;;;;;6.43;1.48;;;;;;;2.42;100.00;101332.19;4915827;29;20095;-84
2022/01/21 00:08:24;;;;;;;6.07;1.95;;;;;;;2.38;100.00;101338.47;4917331;29;20443;-85
2022/01/21 00:10:51;;;;;;;6.85;1.70;;;;;;;2.43;100.00;101310.50;4917161;29;20032;-85
2022/01/21 00:13:34;;;;;;;5.78;1.73;;;;;;;2.42;100.00;101326.13;4918266;29;20060;-84
2022/01/21 00:16:05;;;;;;;5.72;2.00;;;;;;;2.52;100.00;101329.06;4917349;29;20039;-86
2022/01/21 00:18:33;;;;;;;6.63;1.95;;;;;;;2.55;100.00;101324.56;4917225;29;20092;-85
2022/01/21 00:31:59;;;;;;;6.95;2.15;;;;;;;2.29;100.00;101320.81;4910701;29;20029;-86
2022/01/21 00:34:25;;;;;;;6.80;2.15;;;;;;;2.29;100.00;101323.41;4902938;29;20037;-85
2022/01/21 00:36:52;;;;;;;5.05;1.90;;;;;;;2.32;100.00;101335.34;4906027;29;20048;-85
2022/01/21 00:39:22;;;;;;;10.68;2.28;;;;;;;2.34;100.00;101326.56;4911088;29;20036;-85
2022/01/21 00:42:05;;;;;;;8.77;2.20;;;;;;;2.23;100.00;101321.97;4910499;29;20124;-84
2022/01/21 00:44:32;;;;;;;11.70;1.55;;;;;;;2.29;100.00;101338.94;4911970;29;20103;-84
2022/01/21 00:46:58;;;;;;;5.95;2.10;;;;;;;2.27;100.00;101327.81;4915083;29;20036;-85
2022/01/21 00:49:24;;;;;;;7.38;2.00;;;;;;;2.33;100.00;101330.06;4914318;29;20031;-85
2022/01/21 00:51:50;;;;;;;8.38;2.10;;;;;;;2.33;100.00;101337.84;4909077;29;20032;-83
2022/01/21 00:54:16;;;;;;;6.50;2.13;;;;;;;2.33;100.00;101335.25;4909395;29;20364;-85
2022/01/21 00:56:42;;;;;;;6.43;1.98;;;;;;;2.34;100.00;101333.50;4916111;29;20040;-83
2022/01/21 00:59:07;;;;;;;4.53;2.15;;;;;;;2.36;100.00;101335.13;4913998;29;20032;-84
2022/01/21 01:01:33;;;;;;;9.80;2.55;;;;;;;2.36;100.00;101339.44;4910779;29;20030;-84
2022/01/21 01:03:59;;;;;;;8.57;2.60;;;;;;;2.28;100.00;101340.72;4911099;29;20051;-84
2022/01/21 01:06:27;;;;;;;8.18;2.28;;;;;;;2.34;100.00;101339.53;4914477;29;20073;-83
2022/01/21 01:08:56;;;;;;;8.38;2.22;;;;;;;2.31;100.00;101329.31;4913332;29;20501;-83
2022/01/21 01:22:07;;;;;;;12.07;2.70;;;;;;;2.21;100.00;101339.34;4915407;29;20118;-85
2022/01/21 01:29:57;;;;;;;7.50;2.75;;;;;;;2.30;100.00;101345.78;4908704;29;20479;-85
2022/01/21 01:32:24;;;;;;;8.90;2.60;;;;;;;2.27;100.00;101343.38;4911720;29;20083;-86
2022/01/21 01:34:52;;;;;;;8.50;3.20;;;;;;;2.22;100.00;101327.25;4893258;29;20498;-85
2022/01/21 01:38:38;;;;;;;9.52;2.97;;;;;;;2.15;100.00;101337.09;4898413;29;20044;-85
2022/01/21 01:51:12;;;;;;;10.95;4.30;;;;;;;2.11;100.00;101333.00;4915561;29;20081;-85
2022/01/21 01:53:44;;;;;;;10.65;3.53;;;;;;;2.20;100.00;101334.28;4914952;29;20179;-85
2022/01/21 01:56:12;;;;;;;13.77;4.35;;;;;;;2.21;100.00;101317.81;4915743;29;20119;-85
2022/01/21 01:58:39;;;;;;;5.80;4.32;;;;;;;2.33;100.00;101319.72;4912298;29;20554;-84
2022/01/21 02:01:25;;;;;;;19.15;4.22;;;;;;;2.39;100.00;101319.38;4914494;29;20024;-84
2022/01/21 02:03:52;;;;;;;13.52;4.95;;;;;;;2.31;100.00;101305.19;4911455;29;20051;-84
2022/01/21 02:06:17;;;;;;;14.05;4.05;;;;;;;2.25;100.00;101322.72;4898312;29;20032;-84
2022/01/21 02:08:44;;;;;;;10.23;3.55;;;;;;;2.22;100.00;101306.53;4912982;29;20028;-84
2022/01/21 02:11:09;;;;;;;9.25;3.45;;;;;;;2.25;100.00;101309.75;4913872;29;20035;-85
2022/01/21 02:13:42;;;;;;;13.25;3.22;;;;;;;2.25;100.00;101314.13;4913117;29;20036;-84
2022/01/21 02:16:31;;;;;;;13.48;3.85;;;;;;;2.28;100.00;101314.81;4912986;29;20047;-84
2022/01/21 02:21:44;;;;;;;6.18;3.25;;;;;;;2.41;100.00;101302.00;4914351;29;20059;-84
2022/01/21 02:24:17;;;;;;;10.80;3.63;;;;;;;2.40;100.00;101300.31;4912997;29;20128;-84
2022/01/21 02:26:45;;;;;;;7.10;3.23;;;;;;;2.55;100.00;101306.41;4912053;29;20087;-85
2022/01/21 02:29:11;;;;;;;16.00;3.47;;;;;;;2.59;100.00;101291.50;4907033;29;20035;-85
2022/01/21 02:31:40;;;;;;;14.48;3.67;;;;;;;2.65;100.00;101298.94;4908770;29;20113;-84
2022/01/21 02:34:08;;;;;;;10.35;3.55;;;;;;;2.69;100.00;101290.06;4910840;29;20103;-85
2022/01/21 02:36:34;;;;;;;14.10;3.28;;;;;;;2.66;100.00;101294.59;4915232;29;20050;-84
2022/01/21 02:39:00;;;;;;;9.20;3.20;;;;;;;2.77;100.00;101301.78;4897867;29;20434;-84
2022/01/21 02:41:26;;;;;;;11.32;3.45;;;;;;;2.87;100.00;101302.91;4918208;29;20119;-84
2022/01/21 02:43:55;;;;;;;11.88;3.03;;;;;;;2.91;100.00;101294.00;4919319;29;20036;-85
2022/01/21 02:46:22;;;;;;;11.90;3.13;;;;;;;2.83;100.00;101306.59;4916930;29;20036;-85
2022/01/21 02:48:49;;;;;;;10.80;3.95;;;;;;;2.95;100.00;101305.91;4917972;29;20087;-85
2022/01/21 02:51:15;;;;;;;13.27;3.90;;;;;;;2.99;100.00;101307.38;4918439;29;20083;-85
2022/01/21 02:56:16;;;;;;;8.70;3.38;;;;;;;3.00;100.00;101303.88;4918693;29;20047;-84
2022/01/21 02:58:44;;;;;;;9.63;3.97;;;;;;;3.23;100.00;101296.50;4916941;29;20060;-85
2022/01/21 03:01:11;;;;;;;13.60;3.95;;;;;;;3.28;100.00;101296.22;4917800;29;20047;-84
2022/01/21 03:03:39;;;;;;;9.30;3.45;;;;;;;3.30;100.00;101294.38;4914546;29;20048;-84
2022/01/21 03:06:05;;;;;;;11.57;3.97;;;;;;;3.35;100.00;101300.13;4918533;29;20035;-84
2022/01/21 03:08:31;;;;;;;12.73;4.15;;;;;;;3.40;100.00;101302.44;4916115;29;20032;-85
2022/01/21 03:10:57;;;;;;;14.52;4.22;;;;;;;3.47;100.00;101288.16;4918199;29;20479;-86
2022/01/21 03:13:23;;;;;;;9.65;4.13;;;;;;;3.72;100.00;101292.72;4916663;29;20040;-86
2022/01/21 03:15:50;;;;;;;11.77;4.45;;;;;;;3.67;100.00;101292.16;4918620;29;20107;-84
2022/01/21 03:18:16;;;;;;;14.43;5.05;;;;;;;3.80;100.00;101286.19;4916761;29;20135;-85
2022/01/21 03:20:44;;;;;;;16.88;4.18;;;;;;;3.93;100.00;101291.47;4900257;29;20123;-85
2022/01/21 03:23:13;;;;;;;11.05;4.05;;;;;;;3.81;100.00;101288.72;4914485;29;20040;-85
2022/01/21 03:25:41;;;;;;;12.32;3.78;;;;;;;3.79;100.00;101290.56;4913645;29;21461;-84
2022/01/21 03:28:07;;;;;;;12.35;3.90;;;;;;;3.88;100.00;101283.13;4908053;29;20028;-84
2022/01/21 03:30:33;;;;;;;12.63;3.75;;;;;;;4.06;100.00;101297.56;4897925;29;20024;-84
2022/01/21 03:32:59;;;;;;;12.52;3.60;;;;;;;4.10;100.00;101288.66;4916816;29;20086;-84
2022/01/21 03:35:24;;;;;;;12.13;3.97;;;;;;;4.10;100.00;101293.84;4914418;29;20039;-84
2022/01/21 03:37:50;;;;;;;9.70;3.88;;;;;;;4.20;100.00;101283.69;4916511;29;20036;-84
2022/01/21 03:40:15;;;;;;;9.73;3.22;;;;;;;4.29;100.00;101290.09;4916760;29;20132;-83
2022/01/21 03:42:41;;;;;;;14.02;3.97;;;;;;;4.34;100.00;101279.41;4917767;29;20076;-83
2022/01/21 03:45:07;;;;;;;10.38;3.45;;;;;;;4.28;100.00;101278.00;4900687;29;20047;-85
2022/01/21 03:47:33;;;;;;;13.77;3.72;;;;;;;4.21;100.00;101281.94;4916701;29;20156;-84
2022/01/21 03:50:18;;;;;;;14.63;3.38;;;;;;;4.30;100.00;101286.56;4897987;29;20061;-85
2022/01/21 03:52:44;;;;;;;8.00;3.10;;;;;;;4.43;100.00;101282.25;4914721;29;20043;-84
2022/01/21 03:55:10;;;;;;;10.75;2.90;;;;;;;4.48;100.00;101281.09;4916884;29;20032;-85
2022/01/21 03:57:35;;;;;;;8.38;2.90;;;;;;;4.53;100.00;101273.84;4916003;29;20028;-84
2022/01/21 04:00:05;;;;;;;11.57;3.22;;;;;;;4.36;100.00;101267.13;4916702;29;20395;-84
2022/01/21 04:02:30;;;;;;;7.35;2.60;;;;;;;4.46;100.00;101273.41;4917514;29;20102;-84
2022/01/21 04:04:55;;;;;;;10.88;3.33;;;;;;;4.48;100.00;101274.16;4915946;29;20048;-85
2022/01/21 04:07:21;;;;;;;10.73;2.90;;;;;;;4.32;100.00;101265.66;4915625;29;20494;-83
2022/01/21 04:09:47;;;;;;;15.85;2.92;;;;;;;4.24;100.00;101260.94;4916176;29;20028;-84
2022/01/21 04:12:13;;;;;;;12.23;3.53;;;;;;;4.08;100.00;101263.69;4917202;29;20063;-83
2022/01/21 04:14:41;;;;;;;15.10;3.53;;;;;;;4.07;100.00;101262.03;4916550;29;20533;-84
2022/01/21 04:17:07;;;;;;;13.00;3.60;;;;;;;4.05;100.00;101262.13;4917038;29;20040;-83
2022/01/21 04:19:33;;;;;;;13.88;3.70;;;;;;;3.90;100.00;101265.69;4917161;29;20036;-83
2022/01/21 04:22:00;;;;;;;12.73;2.95;;;;;;;3.78;100.00;101249.94;4913490;29;20494;-84
2022/01/21 04:24:25;;;;;;;12.43;3.70;;;;;;;3.87;100.00;101251.13;4895088;29;20411;-84
2022/01/21 04:26:51;;;;;;;7.97;2.70;;;;;;;3.80;100.00;101262.81;4907250;29;20035;-84
2022/01/21 04:29:17;;;;;;;9.25;3.42;;;;;;;3.92;100.00;101238.69;4915531;29;20115;-85
2022/01/21 04:31:43;;;;;;;8.63;2.85;;;;;;;4.16;100.00;101235.44;4917047;29;20032;-83
2022/01/21 04:34:09;;;;;;;14.60;3.10;;;;;;;4.21;100.00;101242.97;4916456;29;20051;-85
2022/01/21 04:36:35;;;;;;;11.00;4.00;;;;;;;4.37;100.00;101238.44;4917487;29;20103;-83
2022/01/21 04:39:03;;;;;;;11.73;3.85;;;;;;;4.47;100.00;101232.63;4916609;29;20048;-85
2022/01/21 04:49:27;;;;;;;13.70;3.95;;;;;;;4.66;100.00;101246.09;4915633;29;20028;-85
2022/01/21 04:52:02;;;;;;;19.15;4.07;;;;;;;4.68;100.00;101236.41;4916829;29;20036;-86
2022/01/21 04:54:34;;;;;;;17.33;4.00;;;;;;;4.95;100.00;101237.28;4898517;29;20122;-85
2022/01/21 04:57:01;;;;;;;18.40;4.72;;;;;;;4.93;100.00;101234.81;4915344;29;20039;-84
2022/01/21 04:59:28;;;;;;;11.23;4.03;;;;;;;4.99;100.00;101236.97;4913868;29;20083;-84
2022/01/21 05:01:53;;;;;;;12.77;4.93;;;;;;;4.91;100.00;101225.41;4914211;29;20028;-84
2022/01/21 05:04:20;;;;;;;15.57;4.90;;;;;;;5.07;100.00;101238.22;4915022;29;20063;-85
2022/01/21 05:06:48;;;;;;;13.70;3.85;;;;;;;5.10;100.00;101235.41;4914159;29;20028;-83
2022/01/21 05:09:16;;;;;;;9.15;3.63;;;;;;;5.10;100.00;101230.19;4916421;29;20127;-85
2022/01/21 05:11:43;;;;;;;14.45;4.30;;;;;;;5.21;100.00;101225.09;4916027;29;20032;-85
2022/01/21 05:14:17;;;;;;;17.10;5.35;;;;;;;5.17;100.00;101222.81;4914725;29;20179;-85
2022/01/21 05:16:48;;;;;;;23.30;5.20;;;;;;;5.28;100.00;101217.72;4914682;29;20028;-85
2022/01/21 05:19:19;;;;;;;13.18;4.93;;;;;;;5.11;100.00;101219.69;4911601;29;20040;-84
2022/01/21 05:21:47;;;;;;;15.05;5.15;;;;;;;5.21;100.00;101211.25;4910119;29;20430;-85
2022/01/21 05:24:13;;;;;;;15.95;5.55;;;;;;;5.17;100.00;101220.19;4908243;29;20037;-84
2022/01/21 05:26:41;;;;;;;19.13;5.88;;;;;;;5.24;100.00;101227.50;4913834;29;20076;-84
2022/01/21 05:29:08;;;;;;;23.90;5.90;;;;;;;5.21;100.00;101217.28;4913419;29;20036;-84
2022/01/21 05:31:34;;;;;;;14.63;5.57;;;;;;;5.19;100.00;101219.16;4914634;29;20092;-85
2022/01/21 05:34:00;;;;;;;13.20;6.05;;;;;;;5.25;100.00;101218.75;4913824;29;20039;-85
2022/01/21 05:36:30;;;;;;;12.82;6.05;;;;;;;5.10;100.00;101219.78;4898459;29;20036;-83
2022/01/21 05:38:57;;;;;;;17.00;5.50;;;;;;;5.19;100.00;101232.19;4915559;29;20103;-84
2022/01/21 05:41:24;;;;;;;19.50;6.25;;;;;;;5.25;100.00;101229.16;4911980;29;20036;-84
2022/01/21 05:43:58;;;;;;;26.05;7.78;;;;;;;5.32;100.00;101232.16;4897569;29;20550;-85
2022/01/21 05:46:46;;;;;;;19.80;5.88;;;;;;;5.25;100.00;101223.94;4914486;29;20091;-86
2022/01/21 05:49:14;;;;;;;20.77;6.35;;;;;;;5.21;100.00;101222.50;4915038;29;20033;-85
2022/01/21 05:51:41;;;;;;;15.77;6.47;;;;;;;5.09;100.00;101215.50;4914539;29;20040;-85
2022/01/21 05:54:10;;;;;;;19.25;6.82;;;;;;;5.11;100.00;101206.69;4915176;29;20503;-86
2022/01/21 05:56:37;;;;;;;16.65;7.03;;;;;;;5.23;100.00;101223.22;4914343;29;20114;-84
2022/01/21 05:59:07;;;;;;;17.63;6.55;;;;;;;5.11;100.00;101211.88;4897888;29;20032;-84
2022/01/21 06:01:34;;;;;;;13.20;5.93;;;;;;;5.25;100.00;101207.50;4913617;29;20063;-85
2022/01/21 06:04:01;;;;;;;12.75;4.85;;;;;;;5.10;100.00;101219.78;4915011;29;20532;-84
2022/01/21 06:06:26;;;;;;;14.95;4.22;;;;;;;4.92;100.00;101207.09;4913986;29;20048;-84
2022/01/21 06:08:52;;;;;;;12.07;3.78;;;;;;;5.22;100.00;101208.53;4914265;29;20479;-84
2022/01/21 06:11:18;;;;;;;14.95;3.80;;;;;;;5.22;100.00;101213.75;4929830;29;20069;-84
2022/01/21 06:13:49;;;;;;;13.07;4.82;;;;;;;5.09;100.00;101197.28;4912788;29;20533;-83
2022/01/21 06:16:15;;;;;;;15.13;4.60;;;;;;;5.31;100.00;101211.47;4906405;29;20040;-84
2022/01/21 06:18:41;;;;;;;17.52;4.80;;;;;;;5.36;100.00;101219.78;4911118;29;20032;-84
2022/01/21 06:21:07;;;;;;;14.00;5.22;;;;;;;5.42;100.00;101216.75;4905922;29;20056;-83
2022/01/21 06:23:35;;;;;;;17.30;5.90;;;;;;;5.21;100.00;101211.25;4910893;29;20032;-84
2022/01/21 06:26:00;;;;;;;8.63;5.05;;;;;;;5.47;100.00;101214.66;4914885;29;20093;-83
2022/01/21 06:28:26;;;;;;;18.10;6.07;;;;;;;5.58;100.00;101211.28;4912047;29;20032;-85
2022/01/21 06:30:52;;;;;;;12.32;5.28;;;;;;;5.36;100.00;101210.19;4914880;29;20038;-85
2022/01/21 06:33:20;;;;;;;18.30;5.43;;;;;;;5.23;100.00;101219.81;4914854;29;20032;-84
2022/01/21 06:35:47;;;;;;;13.68;4.78;;;;;;;5.40;100.00;101209.06;4897617;29;20028;-84
2022/01/21 06:38:13;;;;;;;15.02;5.03;;;;;;;5.19;100.00;101206.16;4930042;29;20043;-85
2022/01/21 06:40:38;;;;;;;14.65;5.65;;;;;;;5.19;100.00;101206.16;4913134;29;20036;-86
2022/01/21 06:43:04;;;;;;;12.13;5.22;;;;;;;5.37;100.00;101211.03;4914271;29;20032;-87
2022/01/21 06:45:30;;;;;;;15.48;5.60;;;;;;;5.53;100.00;101201.22;4915223;29;20040;-85
2022/01/21 06:47:59;;;;;;;10.57;5.05;;;;;;;5.55;100.00;101201.94;4912941;29;20453;-85
2022/01/21 06:50:25;;;;;;;11.45;5.15;;;;;;;5.31;100.00;101201.06;4914270;29;20398;-87
2022/01/21 06:52:51;;;;;;;17.85;5.00;;;;;;;5.48;100.00;101194.66;4898461;29;20028;-86
2022/01/21 06:55:17;;;;;;;12.27;5.20;;;;;;;5.47;100.00;101186.00;4897932;29;20040;-84
2022/01/21 06:57:42;;;;;;;10.45;4.97;;;;;;;5.53;100.00;101193.41;4913860;29;20036;-85
2022/01/21 07:00:18;;;;;;;14.70;5.75;;;;;;;5.12;100.00;101197.09;4895066;29;20044;-84
2022/01/21 07:02:45;;;;;;;15.55;5.50;;;;;;;5.27;100.00;101193.41;4914424;29;20031;-85
2022/01/21 07:05:11;;;;;;;19.63;6.00;;;;;;;5.23;100.00;101189.38;4898800;29;20104;-86
2022/01/21 07:07:37;;;;;;;15.30;5.55;;;;;;;5.14;100.00;101187.41;4894775;29;20043;-87
2022/01/21 07:10:06;;;;;;;11.18;5.35;;;;;;;5.32;100.00;101174.06;4913708;29;20509;-86
2022/01/21 07:12:35;;;;;;;16.30;7.07;;;;;;;5.38;100.00;101191.84;4895715;29;20024;-86
2022/01/21 07:15:01;;;;;;;14.98;6.10;;;;;;;5.36;100.00;101191.13;4913339;29;20028;-84
2022/01/21 07:17:26;;;;;;;16.35;6.05;;;;;;;5.41;100.00;101192.50;4888028;29;20398;-85
2022/01/21 07:19:53;;;;;;;14.93;6.47;;;;;;;5.25;100.00;101197.91;4906512;29;20059;-87
2022/01/21 07:22:18;;;;;;;17.42;6.43;;;;;;;5.48;100.00;101210.28;4913591;29;20107;-86
2022/01/21 07:24:44;;;;;;;14.40;5.95;;;;;;;5.43;100.00;101201.03;4897992;29;20032;-85
2022/01/21 07:27:10;;;;;;;20.38;7.15;;;;;;;5.45;100.00;101198.28;4916323;29;20032;-85
2022/01/21 07:29:36;;;;;;;14.55;5.85;;;;;;;5.72;100.00;101205.13;4932877;29;20431;-85
2022/01/21 07:32:02;;;;;;;17.67;6.55;;;;;;;5.37;100.00;101205.81;4902037;29;20052;-86
2022/01/21 07:34:28;;;;;;;11.18;5.63;;;;;;;5.46;100.00;101189.53;4917629;29;20034;-86
2022/01/21 07:36:54;;;;;;;16.75;5.80;;;;;;;5.46;100.00;101212.16;4917284;29;20069;-85
2022/01/21 07:39:20;;;;;;;17.05;5.70;;;;;;;5.57;100.00;101207.88;4916437;29;20032;-85
2022/01/21 07:41:46;;;;;;;13.00;5.85;;;;;;;5.44;100.00;101207.03;4914656;29;20028;-86
2022/01/21 07:44:12;;;;;;;15.00;7.57;;;;;;;5.21;100.00;101212.09;4918334;29;20390;-84
2022/01/21 07:46:40;;;;;;;11.70;4.70;;;;;;;5.16;100.00;101203.75;4923710;29;20028;-84
2022/01/21 07:49:06;;;;;;;13.90;5.50;;;;;;;5.30;100.00;101210.63;4912863;29;20513;-85
2022/01/21 07:51:32;;;;;;;20.38;4.95;;;;;;;5.28;100.00;101202.91;4913899;29;20040;-85
2022/01/21 07:53:59;;;;;;;8.77;3.60;;;;;;;5.46;100.00;101205.16;4916443;29;20070;-83
2022/01/21 07:56:24;;;;;;;9.02;3.40;;;;;;;5.61;100.00;101205.03;4924503;29;20435;-83
2022/01/21 07:58:52;;;;;;;9.68;3.97;;;;;;;5.77;100.00;101208.22;4918010;29;20394;-83
2022/01/21 08:01:19;;;;;;;8.65;4.15;;;;;;;5.71;100.00;101193.03;4912401;29;20032;-84
2022/01/21 08:03:47;;;;;;;10.52;4.93;;;;;;;5.85;100.00;101211.09;4917945;29;20048;-86
2022/01/21 08:06:26;;;;;;;15.95;4.85;;;;;;;5.57;100.00;101207.88;4909537;29;20107;-88
2022/01/21 08:08:54;;;;;;;11.13;4.63;;;;;;;5.50;100.00;101190.16;4900081;29;20379;-86
2022/01/21 08:11:21;;;;;;;13.77;5.35;;;;;;;5.79;100.00;101200.28;4900879;29;20100;-84
2022/01/21 08:13:48;;;;;;;10.40;6.15;;;;;;;5.86;100.00;101202.34;4914487;29;20028;-84
2022/01/21 08:16:17;;;;;;;14.52;6.90;;;;;;;5.83;100.00;101207.78;4914077;29;20095;-85
2022/01/21 08:18:43;;;;;;;10.20;6.50;;;;;;;5.80;100.00;101213.22;4916523;29;20028;-83
2022/01/21 08:21:08;;;;;;;12.70;6.38;;;;;;;5.72;100.00;101202.50;4915401;29;20078;-83
2022/01/21 08:23:34;;;;;;;17.25;7.70;;;;;;;5.48;100.00;101216.31;4914239;29;20032;-83
2022/01/21 08:26:00;;;;;;;20.02;7.65;;;;;;;5.33;100.00;101220.00;4916863;29;20031;-83
2022/01/21 08:28:26;;;;;;;15.77;7.88;;;;;;;5.29;100.00;101214.16;4915060;29;20035;-83
2022/01/21 08:30:52;;;;;;;18.95;8.82;;;;;;;5.32;100.00;101203.53;4915255;29;20028;-83
2022/01/21 08:33:20;;;;;;;23.23;8.93;;;;;;;5.30;100.00;101205.41;4912475;29;20028;-83
2022/01/21 08:35:45;;;;;;;18.23;9.07;;;;;;;5.23;100.00;101199.78;4914589;29;20032;-83
2022/01/21 08:38:11;;;;;;;21.10;9.40;;;;;;;5.19;100.00;101208.75;4911624;29;20055;-82
2022/01/21 08:40:38;;;;;;;18.13;9.57;;;;;;;5.22;100.00;101203.34;4915328;29;20028;-83
2022/01/21 08:43:04;;;;;;;25.10;10.00;;;;;;;5.14;100.00;101211.66;4916676;29;20046;-82
2022/01/21 08:45:29;;;;;;;20.30;10.52;;;;;;;5.16;100.00;101211.56;4915357;29;20111;-83
2022/01/21 08:47:56;;;;;;;16.25;9.90;;;;;;;5.23;100.00;101209.38;4912528;29;20028;-82
2022/01/21 08:50:22;;;;;;;20.25;11.82;;;;;;;5.20;100.00;101215.63;4915524;29;20034;-83
2022/01/21 08:52:54;;;;;;;17.02;9.45;;;;;;;5.23;100.00;101201.56;4907030;29;20035;-83
2022/01/21 08:55:22;;;;;;;18.33;9.80;;;;;;;5.24;100.00;101201.44;4914879;29;20047;-82
2022/01/21 08:57:48;;;;;;;18.88;9.20;;;;;;;5.49;100.00;101197.13;4896680;29;20032;-82
2022/01/21 09:00:20;;;;;;;19.30;9.70;;;;;;;5.63;100.00;101196.19;4908909;29;20044;-82
2022/01/21 09:02:46;;;;;;;15.65;9.85;;;;;;;5.83;100.00;101202.56;4916246;29;20497;-83
2022/01/21 09:05:13;;;;;;;15.35;9.63;;;;;;;5.83;100.00;101192.13;4909320;29;20075;-82
2022/01/21 09:07:38;;;;;;;18.20;9.55;;;;;;;5.99;100.00;101185.81;4910932;29;20059;-82
2022/01/21 09:10:05;;;;;;;20.92;9.13;;;;;;;6.17;100.00;101190.69;4925828;29;20411;-82
2022/01/21 09:12:32;;;;;;;19.85;9.90;;;;;;;6.24;100.00;101181.44;4883234;29;20041;-81
2022/01/21 09:14:57;;;;;;;22.23;10.00;;;;;;;6.31;100.00;101190.50;4906579;29;20149;-81
2022/01/21 09:17:23;;;;;;;13.27;8.40;;;;;;;6.21;100.00;101190.34;4912410;29;20564;-80
2022/01/21 09:19:49;;;;;;;12.68;7.32;;;;;;;6.00;100.00;101192.69;4897182;29;20032;-81
2022/01/21 09:22:15;;;;;;;14.63;7.80;;;;;;;6.05;100.00;101195.81;4914251;29;20042;-81
2022/01/21 09:24:41;;;;;;;13.90;8.40;;;;;;;6.02;100.00;101170.00;4913463;29;20493;-81
2022/01/21 09:27:07;;;;;;;13.93;7.20;;;;;;;6.12;100.00;101173.59;4912583;29;20099;-81
2022/01/21 09:29:34;;;;;;;13.48;7.72;;;;;;;5.99;100.00;101170.19;4913682;29;20108;-81
2022/01/21 09:32:01;;;;;;;14.80;6.72;;;;;;;5.88;100.00;101157.09;4897910;29;20054;-81
2022/01/21 09:34:28;;;;;;;10.93;6.45;;;;;;;5.85;100.00;101174.59;4912817;29;20043;-81
2022/01/21 09:36:55;;;;;;;10.27;6.10;;;;;;;5.76;100.00;101175.28;4914868;29;20031;-81
2022/01/21 09:39:22;;;;;;;9.48;6.13;;;;;;;5.88;100.00;101177.94;4914792;29;20028;-81
2022/01/21 09:41:49;;;;;;;8.77;6.30;;;;;;;5.98;100.00;101171.94;4913056;29;20091;-81
2022/01/21 09:44:17;;;;;;;13.57;6.95;;;;;;;5.63;100.00;101185.75;4913797;29;20120;-80
2022/01/21 09:46:46;;;;;;;9.68;6.63;;;;;;;6.08;100.00;101179.97;4914024;29;20083;-81
2022/01/21 09:49:27;;;;;;;10.63;7.13;;;;;;;6.01;100.00;101189.19;4913418;29;20036;-82
2022/01/21 09:51:57;;;;;;;9.40;5.97;;;;;;;5.84;100.00;101187.78;4914384;29;20028;-81
2022/01/21 09:54:25;;;;;;;9.60;6.45;;;;;;;5.78;100.00;101183.81;4912791;29;20087;-81
2022/01/21 09:56:57;;;;;;;10.18;6.15;;;;;;;5.86;100.00;101186.69;4914889;29;20036;-82
2022/01/21 09:59:26;;;;;;;9.30;5.65;;;;;;;5.94;100.00;101193.16;4910345;29;20147;-81
2022/01/21 10:01:55;;;;;;;11.68;6.30;;;;;;;6.10;100.00;101187.69;4897237;29;20067;-81
2022/01/21 10:04:25;;;;;;;10.77;5.40;;;;;;;6.06;100.00;101199.28;4912442;29;20079;-81
2022/01/21 10:06:53;;;;;;;8.45;5.40;;;;;;;6.03;100.00;101192.50;4901500;29;20040;-81
2022/01/21 10:09:21;;;;;;;11.52;6.30;;;;;;;6.16;100.00;101183.81;4911683;29;20046;-81
2022/01/21 10:11:50;;;;;;;8.60;5.47;;;;;;;5.86;100.00;101180.66;4911300;29;20042;-81
2022/01/21 10:14:20;;;;;;;8.45;5.47;;;;;;;6.22;100.00;101183.34;4912121;29;20106;-79
2022/01/21 10:16:46;;;;;;;7.57;4.72;;;;;;;6.32;100.00;101186.09;4909347;29;20044;-79
2022/01/21 10:19:12;;;;;;;7.30;4.75;;;;;;;6.14;100.00;101187.34;4913820;29;20148;-79
2022/01/21 10:21:43;;;;;;;8.18;4.90;;;;;;;6.51;100.00;101185.59;4911120;29;20035;-80
2022/01/21 10:24:13;;;;;;;8.30;4.15;;;;;;;6.62;100.00;101192.59;4913554;29;20099;-80
2022/01/21 10:27:06;;;;;;;6.78;3.80;;;;;;;6.76;100.00;101178.50;4913047;29;20489;-80
2022/01/21 10:29:42;;;;;;;7.20;3.88;;;;;;;6.96;100.00;101164.75;4909202;29;20139;-82
2022/01/21 10:32:08;;;;;;;5.50;3.95;;;;;;;7.04;100.00;101173.78;4910240;29;20471;-82
2022/01/21 10:34:40;;;;;;;6.63;3.10;;;;;;;6.67;100.00;101173.03;4909911;29;20145;-82
2022/01/21 10:37:22;;;;;;;3.88;2.88;;;;;;;6.20;100.00;101165.22;4913059;29;20032;-82
2022/01/21 10:40:00;;;;;;;4.03;2.97;;;;;;;6.29;100.00;101171.53;4914044;29;20568;-82
2022/01/21 10:42:27;;;;;;;4.13;3.20;;;;;;;6.07;100.00;101161.84;4909438;29;20039;-82
2022/01/21 10:44:53;;;;;;;3.95;2.70;;;;;;;6.12;100.00;101163.16;4912914;29;20032;-81
2022/01/21 10:47:18;;;;;;;3.25;2.20;;;;;;;5.99;100.00;101170.19;4913748;29;20506;-82
2022/01/21 10:50:01;;;;;;;4.65;2.70;;;;;;;5.98;100.00;101158.09;4914336;29;20075;-82
2022/01/21 10:52:35;;;;;;;3.53;2.50;;;;;;;6.10;100.00;101162.44;4913541;29;20066;-81
2022/01/21 10:55:01;;;;;;;4.90;1.95;;;;;;;6.02;100.00;101143.91;4912028;29;20039;-81
2022/01/21 10:57:30;;;;;;;2.72;2.10;;;;;;;6.34;100.00;101161.56;4913527;29;20525;-82
2022/01/21 11:00:06;;;;;;;2.55;2.05;;;;;;;6.19;100.00;101152.28;4914620;29;20029;-81
2022/01/21 11:02:54;;;;;;;2.35;2.00;;;;;;;6.47;100.00;101153.66;4901584;29;20040;-80
2022/01/21 11:05:30;;;;;;;3.35;2.33;;;;;;;6.35;100.00;101162.41;4911503;29;20043;-81
2022/01/21 11:08:05;;;;;;;3.45;2.38;;;;;;;6.49;100.00;101166.59;4914457;29;20391;-81
2022/01/21 11:10:42;;;;;;;3.10;2.30;;;;;;;6.36;100.00;101172.72;4909695;29;20076;-81
2022/01/21 11:13:15;;;;;;;3.45;2.42;;;;;;;6.62;100.00;101167.31;4917311;29;20427;-81
2022/01/21 11:15:46;;;;;;;4.13;2.20;;;;;;;6.48;100.00;101151.88;4899737;29;20123;-81
2022/01/21 11:18:15;;;;;;;4.65;2.28;;;;;;;6.34;100.00;101158.97;4918572;29;20099;-81
2022/01/21 11:20:43;;;;;;;3.38;2.30;;;;;;;6.50;100.00;101147.41;4913626;29;20091;-82
2022/01/21 11:23:09;;;;;;;2.58;2.22;;;;;;;6.43;100.00;101147.84;4918408;29;20032;-81
2022/01/21 11:25:51;;;;;;;4.65;2.42;;;;;;;6.58;100.00;101142.41;4912898;29;20032;-83
2022/01/21 11:28:19;;;;;;;3.63;2.28;;;;;;;6.61;100.00;101139.56;4900594;29;20028;-82
2022/01/21 11:30:46;;;;;;;4.28;2.33;;;;;;;6.77;100.00;101141.84;4912641;29;20047;-82
2022/01/21 11:33:12;;;;;;;3.83;2.78;;;;;;;7.15;100.00;101134.59;4919371;29;20036;-84
2022/01/21 11:35:38;;;;;;;4.05;2.35;;;;;;;6.88;100.00;101161.91;4918720;29;20557;-82
2022/01/21 11:38:09;;;;;;;5.18;2.70;;;;;;;6.93;100.00;101112.78;4915899;29;20498;-81
2022/01/21 11:40:35;;;;;;;2.40;1.90;;;;;;;6.77;100.00;101126.16;4895828;29;20051;-79
2022/01/21 11:43:06;;;;;;;4.35;2.13;;;;;;;6.75;100.00;101124.66;4901248;29;20505;-82
2022/01/21 11:45:54;;;;;;;3.22;2.38;;;;;;;6.77;100.00;101109.69;4917725;29;20091;-79
2022/01/21 11:50:51;;;;;;;4.22;2.55;;;;;;;6.61;100.00;101130.94;4914808;29;20047;-80
2022/01/21 11:53:52;;;;;;;3.28;2.55;;;;;;;6.68;100.00;101117.28;4916316;29;20118;-81
2022/01/21 11:56:43;;;;;;;4.18;3.10;;;;;;;6.77;100.00;101112.31;4912077;29;20107;-81
2022/01/21 11:59:30;;;;;;;3.78;2.70;;;;;;;6.71;100.00;101108.38;4916553;29;20043;-80
2022/01/21 12:01:55;;;;;;;6.97;2.70;;;;;;;6.78;100.00;101111.34;4908934;29;20467;-80
2022/01/21 12:04:30;;;;;;;5.43;3.47;;;;;;;6.62;100.00;101103.88;4913357;29;20096;-79
2022/01/21 12:06:58;;;;;;;4.10;3.47;;;;;;;6.58;100.00;101105.88;4911581;29;20185;-80
2022/01/21 12:09:53;;;;;;;7.15;3.70;;;;;;;6.86;100.00;101108.97;4904992;29;20052;-80
2022/01/21 12:12:19;;;;;;;4.07;3.67;;;;;;;6.87;100.00;101102.78;4887869;29;20071;-79
2022/01/21 12:14:50;;;;;;;7.03;3.92;;;;;;;6.71;100.00;101103.16;4916642;29;20123;-80
2022/01/21 12:18:04;;;;;;;6.55;4.25;;;;;;;6.87;100.00;101105.41;4916058;29;20510;-80
2022/01/21 12:20:32;;;;;;;6.35;3.58;;;;;;;6.72;100.00;101102.22;4865848;29;20049;-80